createdAt,value
2023-05-11T00:00:47.766Z,12.07
2023-05-11T00:03:52.086Z,13.13
2023-05-11T00:06:55.971Z,13.43
2023-05-11T00:09:58.506Z,12.68
2023-05-11T00:13:01.498Z,13.53
2023-05-11T00:16:04.935Z,12.73
2023-05-11T00:22:08.662Z,12.65
2023-05-11T00:25:10.800Z,12.43
2023-05-11T00:28:13.057Z,13.20
2023-05-11T00:31:14.948Z,13.25
2023-05-11T00:34:18.544Z,13.30
2023-05-11T00:37:20.338Z,14.05
2023-05-11T00:40:26.738Z,12.48
2023-05-11T00:43:28.655Z,12.65
2023-05-11T00:46:31.269Z,13.80
2023-05-11T00:49:33.320Z,13.40
2023-05-11T00:52:36.113Z,13.90
2023-05-11T00:55:38.532Z,13.25
2023-05-11T00:58:43.713Z,13.40
2023-05-11T01:01:45.741Z,14.20
2023-05-11T01:04:47.882Z,14.68
2023-05-11T01:08:05.064Z,14.35
2023-05-11T01:11:17.456Z,14.25
2023-05-11T01:14:21.776Z,14.25
2023-05-11T01:17:36.083Z,14.05
2023-05-11T01:20:38.034Z,14.15
2023-05-11T01:23:49.148Z,14.98
2023-05-11T01:27:40.411Z,15.18
2023-05-11T01:30:57.053Z,14.07
2023-05-11T01:34:06.410Z,14.93
2023-05-11T01:37:23.158Z,14.45
2023-05-11T01:40:29.265Z,13.98
2023-05-11T01:43:36.302Z,15.38
2023-05-11T01:46:40.065Z,15.35
2023-05-11T01:49:44.560Z,15.02
2023-05-11T01:52:47.965Z,14.10
2023-05-11T01:58:55.465Z,14.70
2023-05-11T02:01:59.505Z,14.40
2023-05-11T02:05:03.247Z,15.07
2023-05-11T02:08:06.897Z,14.32
2023-05-11T02:11:10.614Z,15.40
2023-05-11T02:14:17.945Z,15.05
2023-05-11T02:17:22.959Z,14.13
2023-05-11T02:20:26.698Z,15.00
2023-05-11T02:23:31.202Z,15.00
2023-05-11T02:26:34.123Z,15.60
2023-05-11T02:29:36.040Z,14.82
2023-05-11T02:32:43.221Z,15.52
2023-05-11T02:35:47.049Z,15.10
2023-05-11T02:38:54.970Z,15.05
2023-05-11T02:41:58.600Z,14.90
2023-05-11T02:45:09.734Z,14.50
2023-05-11T02:48:23.897Z,14.50
2023-05-11T02:51:31.971Z,13.38
2023-05-11T02:54:35.511Z,14.45
2023-05-11T02:57:39.866Z,13.88
2023-05-11T03:00:42.660Z,14.15
2023-05-11T03:03:44.821Z,14.07
2023-05-11T03:06:46.891Z,14.02
2023-05-11T03:09:49.358Z,14.00
2023-05-11T03:12:51.912Z,14.30
2023-05-11T03:15:57.937Z,14.27
2023-05-11T03:19:02.066Z,13.45
2023-05-11T03:22:05.870Z,13.77
2023-05-11T03:25:08.851Z,13.43
2023-05-11T03:28:13.465Z,14.50
2023-05-11T03:31:15.581Z,13.98
2023-05-11T03:34:18.342Z,14.10
2023-05-11T03:37:21.447Z,12.82
2023-05-11T03:40:25.318Z,13.30
2023-05-11T03:43:30.410Z,12.98
2023-05-11T03:46:50.509Z,12.70
2023-05-11T03:49:53.220Z,13.02
2023-05-11T03:52:56.403Z,13.00
2023-05-11T03:55:58.393Z,12.95
2023-05-11T03:59:00.349Z,12.57
2023-05-11T04:02:12.776Z,13.30
2023-05-11T04:05:15.609Z,12.63
2023-05-11T04:08:17.771Z,12.23
2023-05-11T04:11:19.620Z,12.40
2023-05-11T04:14:21.379Z,12.45
2023-05-11T04:17:25.677Z,12.13
2023-05-11T04:20:27.597Z,11.52
2023-05-11T04:23:30.205Z,12.38
2023-05-11T04:26:32.161Z,12.40
2023-05-11T04:29:36.260Z,12.32
2023-05-11T04:32:38.045Z,12.27
2023-05-11T04:35:40.167Z,13.40
2023-05-11T04:38:42.307Z,12.00
2023-05-11T04:41:44.691Z,12.77
2023-05-11T04:44:46.576Z,12.48
2023-05-11T04:47:49.289Z,13.43
2023-05-11T04:50:52.160Z,12.45
2023-05-11T04:53:54.789Z,12.88
2023-05-11T04:56:56.772Z,13.30
2023-05-11T04:59:58.810Z,12.02
2023-05-11T05:03:01.517Z,12.80
2023-05-11T05:06:03.950Z,12.15
2023-05-11T05:09:06.940Z,12.30
2023-05-11T05:12:11.532Z,12.85
2023-05-11T05:15:13.368Z,12.43
2023-05-11T05:18:16.726Z,12.88
2023-05-11T05:24:21.019Z,12.68
2023-05-11T05:27:22.832Z,13.33
2023-05-11T05:30:26.994Z,12.73
2023-05-11T05:33:28.997Z,12.68
2023-05-11T05:36:31.791Z,12.70
2023-05-11T05:39:33.653Z,13.15
2023-05-11T05:42:35.508Z,12.30
2023-05-11T05:45:37.296Z,13.05
2023-05-11T05:48:41.442Z,12.88
2023-05-11T05:51:44.298Z,13.57
2023-05-11T05:54:46.273Z,13.27
2023-05-11T05:57:48.461Z,13.18
2023-05-11T06:00:50.478Z,13.93
2023-05-11T06:03:52.739Z,14.77
2023-05-11T06:06:56.056Z,15.13
2023-05-11T06:09:58.337Z,14.77
2023-05-11T06:13:03.410Z,15.90
2023-05-11T06:16:05.441Z,16.83
2023-05-11T06:19:09.396Z,18.60
2023-05-11T06:22:11.264Z,19.80
2023-05-11T06:25:33.565Z,20.13
2023-05-11T06:28:35.347Z,21.58
2023-05-11T06:31:38.854Z,21.23
2023-05-11T06:34:41.450Z,22.98
2023-05-11T06:37:43.199Z,22.38
2023-05-11T06:40:45.222Z,22.48
2023-05-11T06:43:47.186Z,22.58
2023-05-11T06:46:48.945Z,24.35
2023-05-11T06:49:50.731Z,24.35
2023-05-11T06:52:52.502Z,24.48
2023-05-11T06:56:00.864Z,24.88
2023-05-11T06:59:02.827Z,25.23
2023-05-11T07:02:05.403Z,24.90
2023-05-11T07:05:07.474Z,25.07
2023-05-11T07:08:10.129Z,25.33
2023-05-11T07:11:13.044Z,18.15
2023-05-11T07:14:15.515Z,23.85
2023-05-11T07:17:17.421Z,24.05
2023-05-11T07:20:20.352Z,24.30
2023-05-11T07:23:22.494Z,23.92
2023-05-11T07:26:24.422Z,24.10
2023-05-11T07:29:27.173Z,22.05
2023-05-11T07:32:30.874Z,21.63
2023-05-11T07:35:32.809Z,22.13
2023-05-11T07:38:35.127Z,24.75
2023-05-11T07:41:36.890Z,26.20
2023-05-11T07:44:38.640Z,25.55
2023-05-11T07:47:40.589Z,24.35
2023-05-11T07:50:43.099Z,23.33
2023-05-11T07:53:44.965Z,22.90
2023-05-11T07:56:46.931Z,22.88
2023-05-11T07:59:48.806Z,24.73
2023-05-11T08:02:50.959Z,23.17
2023-05-11T08:05:52.980Z,21.85
2023-05-11T08:08:59.634Z,24.73
2023-05-11T08:12:11.077Z,24.75
2023-05-11T08:15:13.835Z,23.95
2023-05-11T08:18:16.008Z,24.55
2023-05-11T08:21:18.756Z,23.63
2023-05-11T08:24:20.519Z,23.65
2023-05-11T08:27:22.320Z,23.08
2023-05-11T08:30:24.355Z,23.50
2023-05-11T08:36:33.821Z,24.42
2023-05-11T08:39:46.617Z,23.88
2023-05-11T08:42:54.131Z,20.77
2023-05-11T08:45:59.691Z,21.40
2023-05-11T08:49:02.049Z,22.77
2023-05-11T08:52:07.737Z,20.95
2023-05-11T08:55:10.110Z,20.58
2023-05-11T08:58:15.968Z,20.30
2023-05-11T09:01:19.260Z,20.05
2023-05-11T09:07:28.429Z,16.77
2023-05-11T09:10:31.040Z,17.05
2023-05-11T09:13:35.598Z,15.23
2023-05-11T09:16:39.053Z,14.27
2023-05-11T09:20:07.758Z,14.30
2023-05-11T09:23:10.178Z,15.02
2023-05-11T09:26:17.017Z,15.52
2023-05-11T09:29:21.996Z,16.25
2023-05-11T09:32:24.583Z,14.05
2023-05-11T09:35:29.407Z,10.85
2023-05-11T09:38:34.170Z,14.07
2023-05-11T09:41:36.064Z,13.77
2023-05-11T09:44:38.932Z,12.90
2023-05-11T09:47:45.205Z,8.95
2023-05-11T09:50:49.324Z,12.40
2023-05-11T09:53:51.106Z,12.13
2023-05-11T09:56:59.577Z,10.95
2023-05-11T10:00:06.385Z,10.30
2023-05-11T10:03:11.924Z,10.15
2023-05-11T10:06:14.310Z,9.07
2023-05-11T10:09:18.630Z,10.25
2023-05-11T10:12:23.761Z,9.05
2023-05-11T10:15:30.477Z,8.77
2023-05-11T10:18:34.459Z,8.55
2023-05-11T10:21:37.710Z,8.40
2023-05-11T10:24:39.883Z,7.88
2023-05-11T10:27:42.706Z,9.00
2023-05-11T10:30:46.554Z,8.50
2023-05-11T10:33:51.190Z,8.70
2023-05-11T10:36:53.872Z,8.57
2023-05-11T10:39:57.462Z,8.20
2023-05-11T10:43:15.186Z,7.53
2023-05-11T10:53:38.073Z,7.18
2023-05-11T10:57:04.746Z,7.95
2023-05-11T11:04:02.902Z,6.32
2023-05-11T11:07:18.205Z,6.78
2023-05-11T11:10:52.480Z,6.78
2023-05-11T11:14:19.193Z,6.45
2023-05-11T11:18:02.068Z,6.32
2023-05-11T11:21:04.734Z,7.03
2023-05-11T11:24:08.621Z,8.05
2023-05-11T11:27:14.577Z,7.57
2023-05-11T11:30:21.352Z,8.10
2023-05-11T11:33:23.447Z,7.63
2023-05-11T11:37:09.659Z,8.00
2023-05-11T11:40:15.429Z,8.18
2023-05-11T11:43:27.271Z,8.32
2023-05-11T11:46:30.468Z,8.98
2023-05-11T11:49:33.193Z,8.50
2023-05-11T11:52:35.033Z,9.35
2023-05-11T11:55:55.275Z,9.40
2023-05-11T11:58:59.408Z,9.13
2023-05-11T12:02:04.129Z,8.98
2023-05-11T12:05:22.328Z,9.45
2023-05-11T12:08:26.571Z,9.07
2023-05-11T12:11:29.926Z,9.07
2023-05-11T12:17:39.239Z,8.80
2023-05-11T12:20:43.482Z,7.82
2023-05-11T12:23:59.263Z,7.18
2023-05-11T12:27:05.291Z,6.75
2023-05-11T12:30:08.138Z,6.53
2023-05-11T12:33:16.639Z,7.20
2023-05-11T12:36:19.171Z,6.53
2023-05-11T12:39:27.142Z,6.50
2023-05-11T12:42:29.781Z,6.20
2023-05-11T12:45:31.770Z,6.68
2023-05-11T12:48:34.782Z,6.00
2023-05-11T12:51:48.592Z,5.63
2023-05-11T12:55:00.324Z,5.53
2023-05-11T12:58:14.294Z,5.88
2023-05-11T13:04:27.980Z,6.07
2023-05-11T13:07:29.919Z,6.18
2023-05-11T13:10:32.996Z,6.63
2023-05-11T13:13:35.621Z,6.20
2023-05-11T13:16:38.864Z,6.82
2023-05-11T13:19:40.971Z,5.53
2023-05-11T13:22:43.432Z,5.82
2023-05-11T13:25:49.532Z,6.03
2023-05-11T13:29:05.894Z,5.90
2023-05-11T13:32:12.666Z,5.78
2023-05-11T13:35:16.848Z,5.30
2023-05-11T13:38:18.949Z,5.70
2023-05-11T13:41:24.189Z,6.63
2023-05-11T13:44:26.891Z,6.75
2023-05-11T13:47:30.321Z,5.95
2023-05-11T13:53:35.077Z,5.75
2023-05-11T13:56:36.908Z,5.45
2023-05-11T13:59:54.314Z,5.85
2023-05-11T14:02:58.330Z,4.82
2023-05-11T14:06:01.646Z,5.68
2023-05-11T14:09:03.901Z,5.45
2023-05-11T14:12:07.307Z,5.07
2023-05-11T14:18:16.415Z,5.60
2023-05-11T14:21:18.361Z,5.82
2023-05-11T14:24:23.031Z,5.70
2023-05-11T14:27:33.527Z,6.15
2023-05-11T14:30:38.201Z,5.75
2023-05-11T14:33:40.139Z,6.53
2023-05-11T14:36:44.128Z,5.95
2023-05-11T14:39:45.929Z,5.47
2023-05-11T14:42:47.848Z,5.95
2023-05-11T14:45:49.892Z,5.72
2023-05-11T14:48:52.459Z,6.05
2023-05-11T14:51:54.513Z,6.00
2023-05-11T14:54:56.516Z,5.80
2023-05-11T14:57:58.511Z,6.00
2023-05-11T15:01:00.368Z,6.38
2023-05-11T15:04:02.201Z,6.10
2023-05-11T15:07:04.125Z,7.07
2023-05-11T15:10:11.452Z,6.68
2023-05-11T15:13:14.575Z,6.22
2023-05-11T15:16:16.741Z,6.60
2023-05-11T15:19:18.922Z,7.13
2023-05-11T15:22:22.521Z,6.03
2023-05-11T15:25:24.675Z,7.13
2023-05-11T15:28:33.154Z,6.82
2023-05-11T15:31:36.020Z,6.28
2023-05-11T15:34:50.806Z,7.93
2023-05-11T15:38:00.941Z,7.72
2023-05-11T15:44:46.443Z,8.77
2023-05-11T15:47:48.425Z,7.45
2023-05-11T15:50:50.480Z,7.45
2023-05-11T15:53:52.350Z,7.18
2023-05-11T15:56:57.208Z,8.20
2023-05-11T15:59:59.350Z,8.52
2023-05-11T16:03:01.587Z,7.50
2023-05-11T16:06:03.812Z,9.05
2023-05-11T16:09:06.507Z,7.85
2023-05-11T16:12:08.572Z,8.45
2023-05-11T16:15:10.633Z,8.73
2023-05-11T16:18:14.031Z,8.68
2023-05-11T16:27:46.596Z,7.57
2023-05-11T16:30:48.586Z,8.13
2023-05-11T16:33:50.382Z,8.23
2023-05-11T16:36:52.803Z,8.70
2023-05-11T16:39:54.707Z,7.55
2023-05-11T16:42:58.063Z,8.60
2023-05-11T16:49:02.483Z,8.02
2023-05-11T16:52:04.628Z,8.40
2023-05-11T16:55:07.085Z,9.18
2023-05-11T16:58:09.980Z,9.77
2023-05-11T17:01:12.385Z,8.93
2023-05-11T17:04:21.215Z,8.60
2023-05-11T17:07:23.261Z,8.98
2023-05-11T17:10:25.157Z,9.60
2023-05-11T17:13:30.041Z,8.60
2023-05-11T17:16:32.945Z,8.40
2023-05-11T17:19:34.980Z,8.98
2023-05-11T17:22:42.671Z,8.43
2023-05-11T17:25:44.927Z,8.73
2023-05-11T17:28:50.964Z,9.98
2023-05-11T17:31:52.914Z,9.65
2023-05-11T17:34:55.669Z,9.07
2023-05-11T17:37:57.442Z,8.93
2023-05-11T17:41:05.717Z,8.60
2023-05-11T17:44:08.271Z,8.90
2023-05-11T17:47:10.348Z,7.87
2023-05-11T17:50:12.087Z,7.75
2023-05-11T17:53:13.986Z,8.43
2023-05-11T17:56:16.559Z,8.10
2023-05-11T17:59:21.096Z,7.77
2023-05-11T18:02:23.101Z,7.90
2023-05-11T18:05:40.297Z,7.88
2023-05-11T18:08:49.454Z,8.38
2023-05-11T18:11:52.144Z,8.30
2023-05-11T18:14:53.973Z,8.55
2023-05-11T18:17:58.907Z,8.57
2023-05-11T18:21:07.389Z,8.45
2023-05-11T18:24:09.804Z,8.35
2023-05-11T18:27:12.622Z,8.63
2023-05-11T18:30:15.555Z,9.05
2023-05-11T18:33:17.434Z,9.27
2023-05-11T18:36:20.094Z,8.95
2023-05-11T18:39:21.993Z,8.47
2023-05-11T18:42:24.051Z,8.50
2023-05-11T18:48:53.630Z,9.10
2023-05-11T18:51:55.795Z,10.40
2023-05-11T18:55:00.072Z,10.68
2023-05-11T18:58:02.362Z,10.90
2023-05-11T19:01:06.755Z,10.73
2023-05-11T19:04:09.026Z,13.02
2023-05-11T19:07:11.244Z,13.60
2023-05-11T19:10:13.159Z,13.95
2023-05-11T19:13:15.226Z,14.23
2023-05-11T19:16:17.308Z,13.65
2023-05-11T19:19:19.375Z,15.60
2023-05-11T19:22:22.283Z,15.02
2023-05-11T19:25:24.988Z,14.88
2023-05-11T19:28:29.349Z,15.33
2023-05-11T19:31:33.200Z,15.25
2023-05-11T19:34:36.193Z,15.05
2023-05-11T19:37:38.067Z,15.20
2023-05-11T19:40:45.844Z,16.63
2023-05-11T19:43:48.357Z,15.82
2023-05-11T19:46:50.232Z,15.48
2023-05-11T19:49:57.027Z,16.58
2023-05-11T19:52:58.920Z,16.08
2023-05-11T19:56:07.114Z,15.77
2023-05-11T19:59:08.948Z,15.45
2023-05-11T20:02:10.748Z,16.00
2023-05-11T20:05:12.605Z,16.10
2023-05-11T20:08:14.524Z,16.83
2023-05-11T20:11:16.613Z,16.58
2023-05-11T20:14:18.529Z,16.15
2023-05-11T20:17:21.465Z,15.55
2023-05-11T20:20:23.631Z,15.85
2023-05-11T20:23:25.539Z,16.55
2023-05-11T20:26:27.427Z,15.82
2023-05-11T20:29:30.473Z,17.38
2023-05-11T20:32:33.261Z,15.50
2023-05-11T20:35:35.158Z,16.60
2023-05-11T20:38:37.900Z,16.30
2023-05-11T20:41:39.760Z,16.95
2023-05-11T20:44:41.661Z,16.83
2023-05-11T20:47:43.491Z,17.75
2023-05-11T20:50:54.732Z,17.70
2023-05-11T20:53:56.750Z,18.25
2023-05-11T20:57:00.197Z,17.20
2023-05-11T21:03:07.208Z,17.42
2023-05-11T21:06:09.152Z,18.63
2023-05-11T21:09:14.585Z,19.67
2023-05-11T21:12:16.536Z,19.05
2023-05-11T21:15:18.766Z,23.38
2023-05-11T21:18:20.646Z,20.23
2023-05-11T21:21:22.663Z,19.13
2023-05-11T21:24:24.456Z,20.27
2023-05-11T21:27:27.082Z,21.38
2023-05-11T21:30:29.923Z,21.07
2023-05-11T21:33:31.777Z,22.48
2023-05-11T21:36:33.706Z,22.50
2023-05-11T21:39:41.710Z,20.88
2023-05-11T21:42:43.632Z,23.08
2023-05-11T21:45:48.591Z,21.38
2023-05-11T21:48:50.608Z,22.63
2023-05-11T21:51:52.917Z,21.95
2023-05-11T21:54:54.687Z,24.27
2023-05-11T21:57:56.617Z,24.15
2023-05-11T22:00:58.330Z,24.00
2023-05-11T22:04:09.005Z,24.55
2023-05-11T22:07:11.129Z,23.40
2023-05-11T22:10:13.213Z,23.25
2023-05-11T22:13:15.118Z,23.50
2023-05-11T22:16:17.202Z,25.60
2023-05-11T22:19:19.198Z,25.05
2023-05-11T22:22:21.069Z,25.55
2023-05-11T22:25:22.994Z,25.83
2023-05-11T22:28:25.647Z,24.02
2023-05-11T22:31:31.749Z,24.38
2023-05-11T22:34:34.354Z,23.73
2023-05-11T22:37:36.210Z,25.90
2023-05-11T22:40:38.200Z,25.00
2023-05-11T22:43:39.962Z,25.63
2023-05-11T22:46:41.925Z,25.48
2023-05-11T22:49:43.790Z,25.67
2023-05-11T22:52:47.951Z,25.85
2023-05-11T22:55:49.789Z,24.92
2023-05-11T22:58:57.345Z,26.63
2023-05-11T23:02:01.719Z,25.10
2023-05-11T23:05:20.883Z,26.08
2023-05-11T23:08:23.022Z,24.13
2023-05-11T23:11:25.039Z,24.27
2023-05-11T23:14:26.899Z,23.33
2023-05-11T23:17:28.952Z,21.63
2023-05-11T23:20:30.865Z,22.48
2023-05-11T23:23:33.375Z,21.80
2023-05-11T23:26:36.449Z,20.67
2023-05-11T23:29:39.747Z,19.58
2023-05-11T23:32:41.649Z,20.17
2023-05-11T23:35:43.599Z,20.38
2023-05-11T23:38:45.517Z,19.45
2023-05-11T23:41:47.541Z,19.55
2023-05-11T23:44:49.399Z,18.77
2023-05-11T23:47:51.739Z,19.83
2023-05-11T23:50:53.616Z,19.33
2023-05-11T23:53:57.053Z,19.55
